createdAt,value
2019-02-28T00:01:19.969Z,6.60
2019-02-28T00:03:47.898Z,6.60
2019-02-28T00:06:15.870Z,6.60
2019-02-28T00:08:43.763Z,6.50
2019-02-28T00:11:11.731Z,6.70
2019-02-28T00:13:39.942Z,6.70
2019-02-28T00:16:07.998Z,6.70
2019-02-28T00:18:36.463Z,6.60
2019-02-28T00:21:07.007Z,6.60
2019-02-28T00:23:34.410Z,6.50
2019-02-28T00:26:02.536Z,6.50
2019-02-28T00:28:30.616Z,6.40
2019-02-28T00:30:59.616Z,6.50
2019-02-28T00:33:31.030Z,6.70
2019-02-28T00:35:59.526Z,6.40
2019-02-28T00:38:30.610Z,6.50
2019-02-28T00:40:58.573Z,6.40
2019-02-28T00:43:27.777Z,6.30
2019-02-28T00:45:58.539Z,5.90
2019-02-28T00:48:26.721Z,5.90
2019-02-28T00:50:54.618Z,5.90
2019-02-28T00:53:22.974Z,6.00
2019-02-28T00:55:51.140Z,5.50
2019-02-28T00:58:19.179Z,5.40
2019-02-28T01:00:48.202Z,5.60
2019-02-28T01:03:16.198Z,5.60
2019-02-28T01:05:44.148Z,5.80
2019-02-28T01:08:12.318Z,5.90
2019-02-28T01:10:40.658Z,6.10
2019-02-28T01:13:08.713Z,6.40
2019-02-28T01:15:36.659Z,6.60
2019-02-28T01:18:04.620Z,6.70
2019-02-28T01:20:32.509Z,6.90
2019-02-28T01:23:00.466Z,6.20
2019-02-28T01:25:28.458Z,6.20
2019-02-28T01:27:56.397Z,5.80
2019-02-28T01:30:24.338Z,5.80
2019-02-28T01:32:52.234Z,5.30
2019-02-28T01:35:20.221Z,5.30
2019-02-28T01:37:48.164Z,5.30
2019-02-28T01:40:16.157Z,5.30
2019-02-28T01:42:43.988Z,5.30
2019-02-28T01:45:12.105Z,5.80
2019-02-28T01:47:40.062Z,6.20
2019-02-28T01:50:08.329Z,6.60
2019-02-28T01:52:36.299Z,7.10
2019-02-28T01:55:05.062Z,7.30
2019-02-28T01:57:33.243Z,7.50
2019-02-28T02:00:01.152Z,7.50
2019-02-28T02:02:29.659Z,7.40
2019-02-28T02:04:57.789Z,7.50
2019-02-28T02:07:25.835Z,7.70
2019-02-28T02:09:53.918Z,7.80
2019-02-28T02:12:22.911Z,7.60
2019-02-28T02:14:50.822Z,7.80
2019-02-28T02:17:18.862Z,7.90
2019-02-28T02:19:49.404Z,7.60
2019-02-28T02:22:16.640Z,7.50
2019-02-28T02:24:44.528Z,7.60
2019-02-28T02:27:12.870Z,7.70
2019-02-28T02:29:40.933Z,7.70
2019-02-28T02:32:08.971Z,7.70
2019-02-28T02:34:37.031Z,7.80
2019-02-28T02:37:05.814Z,7.70
2019-02-28T02:39:34.795Z,7.70
2019-02-28T02:42:09.766Z,7.80
2019-02-28T02:44:32.571Z,7.80
2019-02-28T02:47:00.521Z,7.90
2019-02-28T02:49:29.473Z,8.00
2019-02-28T02:51:57.409Z,7.90
2019-02-28T02:54:25.399Z,7.70
2019-02-28T02:56:53.331Z,8.00
2019-02-28T02:59:21.221Z,7.90
2019-02-28T03:01:49.168Z,7.90
2019-02-28T03:04:22.988Z,7.80
2019-02-28T03:06:47.010Z,7.60
2019-02-28T03:09:14.950Z,7.60
2019-02-28T03:11:43.077Z,7.70
2019-02-28T03:14:11.452Z,7.80
2019-02-28T03:16:39.813Z,7.60
2019-02-28T03:19:09.309Z,7.70
2019-02-28T03:21:37.553Z,7.50
2019-02-28T03:24:05.850Z,7.50
2019-02-28T03:26:34.081Z,7.40
2019-02-28T03:29:07.528Z,7.50
2019-02-28T03:31:32.280Z,7.60
2019-02-28T03:34:10.358Z,7.60
2019-02-28T03:36:31.476Z,7.90
2019-02-28T03:39:00.401Z,7.80
2019-02-28T03:41:28.374Z,7.80
2019-02-28T03:43:56.334Z,7.90
2019-02-28T03:46:24.825Z,7.70
2019-02-28T03:48:52.732Z,7.70
2019-02-28T03:51:21.187Z,7.30
2019-02-28T03:53:55.579Z,7.50
2019-02-28T03:56:19.004Z,7.50
2019-02-28T03:58:47.239Z,7.20
2019-02-28T04:01:15.148Z,7.10
2019-02-28T04:03:44.036Z,7.20
2019-02-28T04:06:12.192Z,7.40
2019-02-28T04:08:40.195Z,7.50
2019-02-28T04:11:08.130Z,7.50
2019-02-28T04:13:36.308Z,7.40
2019-02-28T04:16:09.225Z,7.50
2019-02-28T04:18:34.135Z,7.50
2019-02-28T04:21:03.850Z,7.50
2019-02-28T04:23:36.163Z,7.30
2019-02-28T04:26:01.686Z,7.30
2019-02-28T04:28:30.103Z,7.50
2019-02-28T04:30:58.154Z,7.20
2019-02-28T04:33:26.119Z,7.20
2019-02-28T04:35:56.909Z,7.20
2019-02-28T04:38:25.279Z,7.20
2019-02-28T04:41:00.625Z,7.30
2019-02-28T04:43:28.647Z,7.20
2019-02-28T04:45:57.616Z,7.30
2019-02-28T04:48:26.853Z,6.90
2019-02-28T04:50:54.885Z,7.40
2019-02-28T04:53:22.855Z,7.20
2019-02-28T04:55:50.928Z,7.30
2019-02-28T04:58:18.857Z,7.00
2019-02-28T05:00:46.891Z,7.10
2019-02-28T05:03:14.778Z,7.10
2019-02-28T05:05:46.525Z,7.10
2019-02-28T05:08:12.658Z,7.10
2019-02-28T05:10:43.489Z,6.80
2019-02-28T05:13:14.147Z,6.90
2019-02-28T05:15:41.555Z,6.80
2019-02-28T05:18:09.658Z,6.70
2019-02-28T05:20:37.567Z,6.80
2019-02-28T05:23:05.587Z,6.80
2019-02-28T05:25:34.475Z,6.60
2019-02-28T05:28:06.741Z,6.90
2019-02-28T05:30:33.502Z,6.80
2019-02-28T05:33:01.479Z,6.90
2019-02-28T05:35:29.688Z,6.90
2019-02-28T05:37:57.731Z,6.50
2019-02-28T05:40:25.750Z,6.80
2019-02-28T05:42:54.695Z,6.90
2019-02-28T05:45:23.890Z,6.70
2019-02-28T05:47:51.920Z,6.70
2019-02-28T05:50:19.814Z,6.70
2019-02-28T05:52:47.976Z,6.80
2019-02-28T05:55:15.956Z,6.60
2019-02-28T05:57:45.031Z,6.60
2019-02-28T06:00:14.580Z,6.60
2019-02-28T06:02:43.348Z,6.70
2019-02-28T06:05:11.829Z,6.60
2019-02-28T06:07:40.640Z,7.00
2019-02-28T06:10:09.205Z,7.00
2019-02-28T06:12:37.147Z,6.60
2019-02-28T06:15:06.914Z,6.50
2019-02-28T06:17:35.224Z,6.40
2019-02-28T06:20:04.219Z,6.30
2019-02-28T06:22:36.221Z,6.30
2019-02-28T06:25:03.014Z,6.30
2019-02-28T06:27:41.190Z,6.30
2019-02-28T06:30:01.980Z,6.50
2019-02-28T06:32:30.638Z,6.50
2019-02-28T06:34:59.935Z,6.40
2019-02-28T06:37:28.021Z,6.40
2019-02-28T06:39:58.581Z,6.50
2019-02-28T06:42:25.834Z,6.60
2019-02-28T06:44:53.817Z,6.50
2019-02-28T06:47:21.837Z,6.60
2019-02-28T06:49:49.841Z,6.80
2019-02-28T06:52:18.751Z,6.90
2019-02-28T06:54:46.770Z,6.90
2019-02-28T06:57:14.753Z,7.00
2019-02-28T06:59:42.722Z,7.20
2019-02-28T07:02:10.724Z,7.30
2019-02-28T07:04:38.762Z,7.50
2019-02-28T07:07:07.422Z,7.40
2019-02-28T07:09:37.274Z,7.50
2019-02-28T07:12:05.165Z,7.10
2019-02-28T07:14:33.298Z,7.30
2019-02-28T07:17:01.638Z,7.50
2019-02-28T07:19:29.645Z,7.40
2019-02-28T07:21:57.679Z,7.20
2019-02-28T07:24:25.660Z,7.00
2019-02-28T07:26:53.664Z,7.20
2019-02-28T07:29:21.773Z,7.20
2019-02-28T07:31:49.844Z,7.40
2019-02-28T07:34:21.935Z,7.60
2019-02-28T07:36:47.878Z,7.90
2019-02-28T07:39:15.786Z,7.80
2019-02-28T07:41:43.815Z,8.00
2019-02-28T07:44:11.791Z,8.30
2019-02-28T07:46:42.264Z,8.30
2019-02-28T07:49:09.926Z,8.30
2019-02-28T07:51:38.369Z,8.50
2019-02-28T07:54:06.339Z,8.50
2019-02-28T07:56:42.714Z,8.10
2019-02-28T07:59:06.433Z,8.70
2019-02-28T08:01:34.394Z,9.10
2019-02-28T08:04:02.342Z,8.60
2019-02-28T08:06:30.373Z,8.90
2019-02-28T08:08:58.460Z,8.80
2019-02-28T08:11:26.536Z,8.90
2019-02-28T08:13:55.524Z,9.60
2019-02-28T08:16:23.574Z,9.30
2019-02-28T08:18:52.468Z,9.30
2019-02-28T08:21:20.559Z,9.50
2019-02-28T08:23:48.617Z,9.50
2019-02-28T08:26:18.860Z,9.60
2019-02-28T08:28:46.761Z,9.50
2019-02-28T08:31:14.722Z,9.50
2019-02-28T08:33:42.769Z,9.50
2019-02-28T08:36:12.593Z,9.90
2019-02-28T08:38:43.688Z,9.80
2019-02-28T08:41:11.499Z,10.00
2019-02-28T08:43:39.556Z,10.60
2019-02-28T08:46:10.805Z,10.30
2019-02-28T08:48:37.395Z,10.40
2019-02-28T08:51:05.965Z,10.50
2019-02-28T08:53:33.979Z,10.90
2019-02-28T08:56:02.010Z,11.20
2019-02-28T08:58:29.949Z,10.90
2019-02-28T09:00:57.938Z,11.20
2019-02-28T09:03:27.444Z,11.20
2019-02-28T09:06:00.944Z,11.50
2019-02-28T09:08:29.012Z,11.00
2019-02-28T09:10:56.979Z,11.90
2019-02-28T09:13:25.232Z,11.50
2019-02-28T09:15:54.221Z,11.40
2019-02-28T09:18:22.241Z,11.70
2019-02-28T09:20:50.983Z,11.60
2019-02-28T09:23:18.956Z,12.00
2019-02-28T09:25:47.201Z,12.30
2019-02-28T09:28:15.298Z,12.20
2019-02-28T09:30:43.311Z,12.30
2019-02-28T09:33:11.321Z,12.40
2019-02-28T09:35:45.321Z,12.50
2019-02-28T09:38:13.363Z,12.80
2019-02-28T09:40:41.162Z,13.20
2019-02-28T09:43:09.130Z,13.60
2019-02-28T09:45:39.852Z,13.90
2019-02-28T09:48:08.503Z,13.50
2019-02-28T09:50:36.840Z,13.70
2019-02-28T09:53:05.292Z,13.70
2019-02-28T09:55:35.455Z,14.10
2019-02-28T09:58:04.712Z,14.40
2019-02-28T10:00:32.990Z,14.10
2019-02-28T10:03:01.532Z,14.50
2019-02-28T10:05:30.677Z,14.10
2019-02-28T10:08:02.793Z,14.40
2019-02-28T10:10:29.902Z,15.10
2019-02-28T10:12:57.986Z,15.00
2019-02-28T10:15:26.065Z,15.20
2019-02-28T10:17:55.668Z,15.40
2019-02-28T10:20:26.955Z,15.40
2019-02-28T10:22:57.241Z,15.70
2019-02-28T10:25:26.386Z,15.40
2019-02-28T10:27:55.114Z,15.80
2019-02-28T10:30:31.290Z,15.80
2019-02-28T10:32:54.013Z,15.60
2019-02-28T10:35:22.629Z,15.30
2019-02-28T10:37:50.857Z,15.80
2019-02-28T10:40:21.829Z,15.80
2019-02-28T10:42:50.676Z,15.40
2019-02-28T10:45:20.292Z,15.50
2019-02-28T10:47:49.409Z,16.20
2019-02-28T10:50:20.155Z,15.80
2019-02-28T10:52:48.479Z,15.60
2019-02-28T10:55:19.476Z,16.30
2019-02-28T10:57:47.941Z,16.70
2019-02-28T11:00:29.335Z,16.50
2019-02-28T11:02:58.705Z,16.80
2019-02-28T11:05:29.861Z,16.90
2019-02-28T11:07:58.742Z,16.50
2019-02-28T11:10:34.810Z,17.10
2019-02-28T11:13:01.647Z,17.60
2019-02-28T11:15:31.009Z,18.20
2019-02-28T11:17:59.167Z,17.20
2019-02-28T11:20:27.647Z,17.30
2019-02-28T11:22:57.867Z,17.40
2019-02-28T11:25:26.310Z,17.40
2019-02-28T11:27:54.724Z,17.30
2019-02-28T11:30:23.610Z,17.60
2019-02-28T11:32:51.669Z,17.20
2019-02-28T11:35:23.229Z,17.70
2019-02-28T11:37:51.746Z,18.20
2019-02-28T11:40:21.576Z,17.90
2019-02-28T11:42:49.482Z,17.50
2019-02-28T11:45:22.009Z,17.80
2019-02-28T11:47:52.760Z,17.60
2019-02-28T11:50:20.799Z,17.10
2019-02-28T11:52:50.055Z,17.50
2019-02-28T11:55:20.376Z,17.40
2019-02-28T11:57:48.450Z,17.90
2019-02-28T12:00:20.659Z,18.20
2019-02-28T12:02:53.284Z,17.90
2019-02-28T12:05:18.984Z,17.60
2019-02-28T12:07:47.190Z,17.70
2019-02-28T12:10:15.168Z,17.60
2019-02-28T12:12:44.589Z,18.30
2019-02-28T12:15:14.556Z,18.50
2019-02-28T12:17:42.772Z,18.20
2019-02-28T12:20:12.261Z,17.90
2019-02-28T12:22:40.214Z,18.50
2019-02-28T12:25:10.694Z,19.80
2019-02-28T12:27:38.738Z,19.00
2019-02-28T12:30:11.378Z,18.70
2019-02-28T12:32:40.272Z,19.20
2019-02-28T12:35:09.175Z,18.60
2019-02-28T12:37:39.107Z,18.90
2019-02-28T12:40:11.156Z,19.30
2019-02-28T12:42:39.738Z,18.80
2019-02-28T12:45:15.032Z,19.40
2019-02-28T12:47:43.020Z,19.30
2019-02-28T12:50:11.346Z,19.60
2019-02-28T12:52:39.446Z,19.80
2019-02-28T12:55:10.510Z,19.70
2019-02-28T12:57:38.493Z,19.70
2019-02-28T13:00:13.798Z,20.30
2019-02-28T13:02:43.519Z,20.20
2019-02-28T13:05:14.948Z,19.50
2019-02-28T13:07:41.911Z,19.20
2019-02-28T13:10:11.571Z,19.50
2019-02-28T13:12:39.541Z,19.70
2019-02-28T13:15:09.378Z,19.80
2019-02-28T13:17:37.362Z,19.70
2019-02-28T13:20:09.675Z,20.00
2019-02-28T13:22:37.868Z,20.20
2019-02-28T13:25:07.687Z,20.30
2019-02-28T13:27:35.679Z,20.50
2019-02-28T13:30:10.572Z,20.40
2019-02-28T13:32:38.098Z,20.70
2019-02-28T13:35:09.319Z,21.30
2019-02-28T13:37:37.558Z,21.10
2019-02-28T13:40:09.493Z,20.70
2019-02-28T13:42:40.496Z,20.80
2019-02-28T13:45:14.769Z,20.40
2019-02-28T13:47:42.063Z,20.70
2019-02-28T13:50:17.417Z,20.40
2019-02-28T13:52:45.450Z,20.90
2019-02-28T13:55:14.196Z,21.10
2019-02-28T13:57:45.726Z,21.20
2019-02-28T14:00:22.501Z,20.80
2019-02-28T14:02:53.063Z,21.10
2019-02-28T14:05:21.272Z,21.30
2019-02-28T14:07:49.425Z,21.30
2019-02-28T14:10:18.835Z,20.80
2019-02-28T14:12:48.206Z,21.40
2019-02-28T14:15:19.580Z,21.40
2019-02-28T14:17:47.686Z,21.90
2019-02-28T14:20:15.894Z,21.60
2019-02-28T14:22:45.823Z,21.60
2019-02-28T14:25:14.179Z,21.60
2019-02-28T14:27:42.476Z,21.00
2019-02-28T14:30:12.127Z,21.70
2019-02-28T14:32:42.361Z,20.90
2019-02-28T14:35:11.549Z,20.90
2019-02-28T14:37:39.938Z,21.50
2019-02-28T14:40:10.791Z,21.80
2019-02-28T14:42:40.849Z,21.80
2019-02-28T14:45:11.543Z,21.70
2019-02-28T14:47:40.402Z,21.80
2019-02-28T14:50:09.838Z,21.60
2019-02-28T14:52:39.331Z,21.00
2019-02-28T14:55:11.173Z,21.50
2019-02-28T14:57:39.309Z,20.60
2019-02-28T15:00:14.467Z,20.50
2019-02-28T15:02:42.686Z,21.50
2019-02-28T15:05:11.235Z,22.20
2019-02-28T15:07:39.749Z,20.90
2019-02-28T15:10:12.230Z,21.30
2019-02-28T15:12:41.237Z,20.80
2019-02-28T15:15:14.789Z,21.10
2019-02-28T15:17:43.054Z,20.90
2019-02-28T15:20:13.480Z,21.10
2019-02-28T15:22:41.598Z,21.80
2019-02-28T15:25:11.313Z,21.40
2019-02-28T15:27:39.887Z,21.40
2019-02-28T15:30:12.433Z,21.40
2019-02-28T15:32:40.552Z,21.50
2019-02-28T15:35:12.506Z,21.40
2019-02-28T15:37:41.593Z,21.00
2019-02-28T15:40:13.176Z,21.10
2019-02-28T15:42:43.009Z,21.80
2019-02-28T15:45:11.943Z,21.50
2019-02-28T15:47:40.298Z,21.10
2019-02-28T15:50:13.592Z,21.30
2019-02-28T15:52:42.324Z,21.10
2019-02-28T15:55:11.456Z,21.10
2019-02-28T15:57:39.751Z,21.00
2019-02-28T16:00:15.833Z,21.60
2019-02-28T16:02:43.882Z,21.40
2019-02-28T16:05:12.426Z,20.60
2019-02-28T16:07:41.102Z,20.50
2019-02-28T16:10:11.722Z,20.30
2019-02-28T16:12:39.706Z,20.20
2019-02-28T16:15:11.994Z,19.80
2019-02-28T16:17:39.316Z,19.50
2019-02-28T16:20:08.423Z,19.40
2019-02-28T16:22:36.707Z,19.50
2019-02-28T16:25:07.410Z,18.90
2019-02-28T16:27:35.517Z,19.50
2019-02-28T16:30:04.907Z,19.30
2019-02-28T16:32:33.490Z,19.30
2019-02-28T16:35:01.551Z,18.90
2019-02-28T16:37:32.380Z,19.00
2019-02-28T16:40:00.034Z,18.80
2019-02-28T16:42:27.994Z,18.30
2019-02-28T16:44:56.068Z,18.20
2019-02-28T16:47:25.160Z,18.10
2019-02-28T16:49:53.174Z,18.30
2019-02-28T16:52:21.211Z,18.00
2019-02-28T16:54:49.278Z,18.00
2019-02-28T16:57:17.361Z,17.60
2019-02-28T16:59:45.446Z,17.80
2019-02-28T17:02:13.579Z,17.70
2019-02-28T17:04:41.567Z,17.30
2019-02-28T17:07:10.249Z,17.30
2019-02-28T17:09:41.457Z,16.90
2019-02-28T17:12:27.151Z,16.80
2019-02-28T17:14:54.909Z,16.10
2019-02-28T17:17:43.541Z,16.30
2019-02-28T17:20:12.539Z,16.60
2019-02-28T17:22:41.922Z,16.50
2019-02-28T17:25:09.989Z,15.70
2019-02-28T17:27:48.496Z,15.70
2019-02-28T17:30:38.775Z,15.10
2019-02-28T17:33:08.987Z,15.60
2019-02-28T17:35:37.144Z,15.70
2019-02-28T17:38:05.271Z,15.40
2019-02-28T17:40:33.431Z,15.50
2019-02-28T17:43:01.437Z,15.40
2019-02-28T17:45:33.739Z,15.30
2019-02-28T17:49:01.733Z,15.40
2019-02-28T17:51:55.393Z,15.60
2019-02-28T17:55:53.507Z,15.30
2019-02-28T17:59:31.811Z,15.80
2019-02-28T18:03:06.389Z,15.50
2019-02-28T18:06:26.314Z,15.60
2019-02-28T18:09:09.549Z,15.90
2019-02-28T18:12:46.282Z,15.90
2019-02-28T18:15:49.003Z,16.10
2019-02-28T18:19:33.121Z,16.00
2019-02-28T18:22:52.830Z,15.80
2019-02-28T18:26:00.364Z,16.00
2019-02-28T18:29:05.257Z,15.60
2019-02-28T18:31:33.508Z,15.60
2019-02-28T18:34:08.411Z,15.80
2019-02-28T18:36:36.554Z,15.90
2019-02-28T18:39:11.660Z,15.70
2019-02-28T18:41:38.891Z,16.00
2019-02-28T18:44:08.439Z,15.30
2019-02-28T18:46:36.536Z,15.70
2019-02-28T18:49:04.649Z,15.70
2019-02-28T18:51:32.746Z,15.80
2019-02-28T18:54:00.983Z,15.60
2019-02-28T18:56:29.169Z,15.40
2019-02-28T18:58:57.445Z,15.10
2019-02-28T19:01:25.599Z,15.00
2019-02-28T19:03:53.876Z,14.40
2019-02-28T19:06:22.179Z,14.80
2019-02-28T19:08:50.569Z,15.00
2019-02-28T19:11:19.026Z,14.90
2019-02-28T19:13:47.251Z,14.90
2019-02-28T19:16:15.558Z,15.00
2019-02-28T19:18:43.956Z,15.10
2019-02-28T19:21:12.153Z,14.90
2019-02-28T19:23:40.904Z,14.90
2019-02-28T19:26:09.840Z,14.80
2019-02-28T19:28:38.168Z,14.80
2019-02-28T19:31:06.505Z,14.60
2019-02-28T19:33:35.044Z,14.50
2019-02-28T19:36:03.110Z,14.90
2019-02-28T19:38:31.438Z,15.10
2019-02-28T19:40:59.511Z,14.90
2019-02-28T19:43:27.837Z,14.50
2019-02-28T19:45:56.473Z,14.40
2019-02-28T19:48:24.805Z,14.20
2019-02-28T19:50:52.955Z,14.30
2019-02-28T19:53:21.188Z,14.20
2019-02-28T19:55:49.269Z,14.20
2019-02-28T19:58:17.469Z,14.40
2019-02-28T20:00:45.721Z,14.30
2019-02-28T20:03:14.184Z,14.20
2019-02-28T20:05:42.578Z,14.10
2019-02-28T20:08:10.891Z,14.20
2019-02-28T20:10:39.076Z,14.10
2019-02-28T20:13:07.395Z,14.00
2019-02-28T20:15:37.383Z,14.00
2019-02-28T20:18:05.761Z,14.10
2019-02-28T20:20:35.457Z,14.30
2019-02-28T20:23:03.791Z,13.90
2019-02-28T20:25:33.226Z,13.80
2019-02-28T20:28:03.866Z,14.00
2019-02-28T20:30:32.426Z,14.40
2019-02-28T20:33:00.619Z,13.60
2019-02-28T20:35:28.803Z,14.10
2019-02-28T20:37:57.297Z,13.80
2019-02-28T20:40:26.920Z,13.50
2019-02-28T20:42:55.175Z,13.70
2019-02-28T20:45:23.572Z,13.80
2019-02-28T20:47:51.818Z,13.60
2019-02-28T20:50:27.684Z,13.60
2019-02-28T20:52:55.930Z,13.80
2019-02-28T20:55:24.693Z,13.90
2019-02-28T20:57:53.416Z,13.70
2019-02-28T21:00:23.995Z,13.40
2019-02-28T21:02:52.891Z,13.70
2019-02-28T21:05:21.024Z,13.90
2019-02-28T21:07:50.876Z,13.60
2019-02-28T21:10:19.153Z,13.30
2019-02-28T21:12:47.415Z,13.60
2019-02-28T21:15:15.765Z,13.60
2019-02-28T21:17:44.070Z,13.40
2019-02-28T21:20:12.470Z,13.70
2019-02-28T21:22:41.843Z,13.80
2019-02-28T21:25:10.844Z,13.50
2019-02-28T21:27:39.119Z,14.10
2019-02-28T21:30:17.594Z,13.90
2019-02-28T21:32:46.042Z,13.50
2019-02-28T21:35:16.114Z,13.90
2019-02-28T21:37:45.833Z,13.80
2019-02-28T21:40:15.433Z,13.80
2019-02-28T21:42:43.758Z,13.70
2019-02-28T21:45:15.594Z,14.10
2019-02-28T21:47:43.988Z,13.40
2019-02-28T21:50:13.149Z,13.60
2019-02-28T21:52:42.266Z,13.30
2019-02-28T21:55:11.468Z,13.50
2019-02-28T21:57:39.655Z,13.70
2019-02-28T22:00:15.623Z,13.40
2019-02-28T22:02:46.226Z,13.40
2019-02-28T22:05:14.402Z,13.50
2019-02-28T22:07:44.441Z,13.30
2019-02-28T22:10:12.820Z,13.50
2019-02-28T22:12:41.061Z,13.40
2019-02-28T22:15:12.407Z,13.70
2019-02-28T22:17:40.562Z,13.50
2019-02-28T22:20:10.330Z,13.80
2019-02-28T22:22:38.361Z,14.10
2019-02-28T22:25:07.220Z,14.00
2019-02-28T22:27:35.296Z,13.50
2019-02-28T22:30:24.016Z,13.50
2019-02-28T22:32:54.022Z,13.70
2019-02-28T22:35:26.613Z,13.40
2019-02-28T22:37:54.897Z,13.20
2019-02-28T22:40:23.065Z,13.50
2019-02-28T22:42:51.236Z,13.10
2019-02-28T22:45:19.290Z,13.30
2019-02-28T22:47:47.421Z,13.30
2019-02-28T22:50:15.607Z,13.60
2019-02-28T22:52:43.586Z,13.50
2019-02-28T22:55:12.625Z,13.50
2019-02-28T22:57:40.579Z,13.60
2019-02-28T23:00:51.565Z,13.40
2019-02-28T23:03:20.054Z,13.40
2019-02-28T23:05:48.035Z,13.60
2019-02-28T23:08:16.605Z,13.60
2019-02-28T23:10:44.657Z,13.80
2019-02-28T23:13:12.962Z,13.90
2019-02-28T23:15:40.997Z,13.80
2019-02-28T23:18:08.972Z,13.70
2019-02-28T23:20:36.915Z,14.00
2019-02-28T23:23:05.151Z,13.70
2019-02-28T23:25:34.460Z,13.50
2019-02-28T23:28:12.257Z,13.50
2019-02-28T23:31:22.232Z,13.30
2019-02-28T23:33:50.396Z,13.30
2019-02-28T23:36:18.453Z,13.30
2019-02-28T23:38:46.378Z,13.30
2019-02-28T23:41:14.349Z,13.00
2019-02-28T23:43:42.458Z,13.00
2019-02-28T23:46:10.772Z,13.00
2019-02-28T23:48:38.761Z,12.90
2019-02-28T23:51:06.771Z,13.50
2019-02-28T23:53:34.795Z,13.30
2019-02-28T23:56:03.236Z,13.00
2019-02-28T23:58:31.268Z,12.60
